createdAt,value
2022-10-11T00:00:27.251Z,61.59
2022-10-11T00:01:29.579Z,61.50
2022-10-11T00:02:31.882Z,61.56
2022-10-11T00:03:34.243Z,61.52
2022-10-11T00:04:36.523Z,61.71
2022-10-11T00:05:38.836Z,61.56
2022-10-11T00:06:43.989Z,61.56
2022-10-11T00:07:46.206Z,61.71
2022-10-11T00:08:48.423Z,61.71
2022-10-11T00:09:50.623Z,61.83
2022-10-11T00:10:57.762Z,61.93
2022-10-11T00:12:00.191Z,61.68
2022-10-11T00:13:04.258Z,61.72
2022-10-11T00:14:06.834Z,61.97
2022-10-11T00:15:11.899Z,61.78
2022-10-11T00:16:15.476Z,62.01
2022-10-11T00:17:17.708Z,61.95
2022-10-11T00:18:20.004Z,62.17
2022-10-11T00:19:22.310Z,62.24
2022-10-11T00:20:32.014Z,62.24
2022-10-11T00:21:34.282Z,62.25
2022-10-11T00:22:38.019Z,62.23
2022-10-11T00:23:43.930Z,62.32
2022-10-11T00:24:46.128Z,62.38
2022-10-11T00:26:00.459Z,62.45
2022-10-11T00:27:03.636Z,62.35
2022-10-11T00:28:06.433Z,62.47
2022-10-11T00:29:08.703Z,62.58
2022-10-11T00:30:14.413Z,62.52
2022-10-11T00:31:16.654Z,62.61
2022-10-11T00:32:19.077Z,62.48
2022-10-11T00:33:21.451Z,62.67
2022-10-11T00:34:23.774Z,62.83
2022-10-11T00:35:26.359Z,62.51
2022-10-11T00:36:28.665Z,62.42
2022-10-11T00:37:32.150Z,62.56
2022-10-11T00:38:34.648Z,62.59
2022-10-11T00:39:38.012Z,62.71
2022-10-11T00:40:40.301Z,62.61
2022-10-11T00:41:43.113Z,62.58
2022-10-11T00:42:46.262Z,62.81
2022-10-11T00:43:48.593Z,62.64
2022-10-11T00:44:53.903Z,62.80
2022-10-11T00:45:56.078Z,62.74
2022-10-11T00:47:02.953Z,62.65
2022-10-11T00:48:19.415Z,62.69
2022-10-11T00:49:34.956Z,62.91
2022-10-11T00:50:40.130Z,63.05
2022-10-11T00:51:57.175Z,62.86
2022-10-11T00:53:10.505Z,63.00
2022-10-11T00:54:17.503Z,62.82
2022-10-11T00:55:22.227Z,63.03
2022-10-11T00:56:28.085Z,62.88
2022-10-11T00:57:38.142Z,63.05
2022-10-11T00:58:42.262Z,62.88
2022-10-11T00:59:49.503Z,62.73
2022-10-11T01:00:55.046Z,62.83
2022-10-11T01:01:57.909Z,62.60
2022-10-11T01:03:01.797Z,62.72
2022-10-11T01:04:04.420Z,62.72
2022-10-11T01:05:28.089Z,62.77
2022-10-11T01:06:33.436Z,62.80
2022-10-11T01:07:39.461Z,62.92
2022-10-11T01:08:42.217Z,62.76
2022-10-11T01:09:44.824Z,63.02
2022-10-11T01:10:47.816Z,62.80
2022-10-11T01:11:53.884Z,62.96
2022-10-11T01:13:40.615Z,62.89
2022-10-11T01:15:10.756Z,62.92
2022-10-11T01:16:26.464Z,62.69
2022-10-11T01:17:52.507Z,62.71
2022-10-11T01:19:06.662Z,62.90
2022-10-11T01:20:49.098Z,62.91
2022-10-11T01:22:20.560Z,62.83
2022-10-11T01:23:56.079Z,62.93
2022-10-11T01:25:11.639Z,62.78
2022-10-11T01:26:38.579Z,62.73
2022-10-11T01:27:40.799Z,62.78
2022-10-11T01:29:24.909Z,62.95
2022-10-11T01:30:29.290Z,62.91
2022-10-11T01:31:52.172Z,62.92
2022-10-11T01:33:29.693Z,62.90
2022-10-11T01:35:04.039Z,63.00
2022-10-11T01:36:27.833Z,62.80
2022-10-11T01:37:36.589Z,62.97
2022-10-11T01:38:47.016Z,62.96
2022-10-11T01:39:59.571Z,63.00
2022-10-11T01:41:09.987Z,62.95
2022-10-11T01:42:15.879Z,63.10
2022-10-11T01:43:20.565Z,63.16
2022-10-11T01:44:25.849Z,62.98
2022-10-11T01:45:28.203Z,62.96
2022-10-11T01:46:36.675Z,63.07
2022-10-11T01:47:39.239Z,63.26
2022-10-11T01:48:54.082Z,63.01
2022-10-11T01:49:58.770Z,63.11
2022-10-11T01:51:03.447Z,63.07
2022-10-11T01:52:07.210Z,62.87
2022-10-11T01:53:31.245Z,63.17
2022-10-11T01:56:31.931Z,62.88
2022-10-11T01:57:37.087Z,62.94
2022-10-11T01:58:41.991Z,62.99
2022-10-11T02:00:16.692Z,62.90
2022-10-11T02:01:37.492Z,63.16
2022-10-11T02:03:06.067Z,63.06
2022-10-11T02:04:38.330Z,62.94
2022-10-11T02:05:47.799Z,63.03
2022-10-11T02:07:20.535Z,63.00
2022-10-11T02:08:44.631Z,63.03
2022-10-11T02:09:58.587Z,62.90
2022-10-11T02:11:06.793Z,63.21
2022-10-11T02:12:23.797Z,63.06
2022-10-11T02:13:32.689Z,63.23
2022-10-11T02:14:47.668Z,63.00
2022-10-11T02:15:52.292Z,63.19
2022-10-11T02:17:04.082Z,63.28
2022-10-11T02:18:11.989Z,63.38
2022-10-11T02:19:19.227Z,63.13
2022-10-11T02:20:24.987Z,63.10
2022-10-11T02:21:27.699Z,63.25
2022-10-11T02:22:37.137Z,63.11
2022-10-11T02:23:45.582Z,63.18
2022-10-11T02:24:51.248Z,63.32
2022-10-11T02:25:55.122Z,63.13
2022-10-11T02:27:00.130Z,63.14
2022-10-11T02:28:08.533Z,63.24
2022-10-11T02:29:14.131Z,63.33
2022-10-11T02:30:17.085Z,63.35
2022-10-11T02:31:20.890Z,63.16
2022-10-11T02:32:25.672Z,63.21
2022-10-11T02:33:36.024Z,63.22
2022-10-11T02:34:47.631Z,63.00
2022-10-11T02:35:57.450Z,63.11
2022-10-11T02:37:07.499Z,63.20
2022-10-11T02:38:19.247Z,63.08
2022-10-11T02:39:45.844Z,63.17
2022-10-11T02:41:00.730Z,63.20
2022-10-11T02:42:07.135Z,63.16
2022-10-11T02:43:17.911Z,63.18
2022-10-11T02:44:32.328Z,63.21
2022-10-11T02:45:48.904Z,62.92
2022-10-11T02:46:51.676Z,63.01
2022-10-11T02:47:54.617Z,63.14
2022-10-11T02:49:00.906Z,63.25
2022-10-11T02:50:04.486Z,63.18
2022-10-11T02:51:13.384Z,63.16
2022-10-11T02:52:18.324Z,63.27
2022-10-11T02:53:24.578Z,63.10
2022-10-11T02:54:27.418Z,63.11
2022-10-11T02:55:29.613Z,63.08
2022-10-11T02:56:31.805Z,63.11
2022-10-11T02:57:34.255Z,62.95
2022-10-11T02:58:39.300Z,63.08
2022-10-11T02:59:41.520Z,62.88
2022-10-11T03:00:46.865Z,63.07
2022-10-11T03:01:49.127Z,63.11
2022-10-11T03:02:51.604Z,62.86
2022-10-11T03:03:53.875Z,62.92
2022-10-11T03:04:56.123Z,62.91
2022-10-11T03:06:03.161Z,62.67
2022-10-11T03:07:05.613Z,62.51
2022-10-11T03:08:10.057Z,62.63
2022-10-11T03:09:15.302Z,62.41
2022-10-11T03:10:17.627Z,62.35
2022-10-11T03:11:19.861Z,62.08
2022-10-11T03:12:22.609Z,62.14
2022-10-11T03:13:24.948Z,61.90
2022-10-11T03:14:27.346Z,61.49
2022-10-11T03:15:29.726Z,61.22
2022-10-11T03:16:34.199Z,61.15
2022-10-11T03:17:37.332Z,60.81
2022-10-11T03:18:39.856Z,60.47
2022-10-11T03:19:42.058Z,60.20
2022-10-11T03:20:44.536Z,59.73
2022-10-11T03:21:49.410Z,59.52
2022-10-11T03:22:51.801Z,59.49
2022-10-11T03:23:54.581Z,59.43
2022-10-11T03:25:02.502Z,59.15
2022-10-11T03:26:06.971Z,58.91
2022-10-11T03:27:09.729Z,58.85
2022-10-11T03:28:12.064Z,58.93
2022-10-11T03:29:14.350Z,58.91
2022-10-11T03:30:18.274Z,58.62
2022-10-11T03:31:22.152Z,58.77
2022-10-11T03:32:26.880Z,58.64
2022-10-11T03:33:29.071Z,58.37
2022-10-11T03:34:31.329Z,58.25
2022-10-11T03:35:33.574Z,58.35
2022-10-11T03:36:38.011Z,58.31
2022-10-11T03:37:40.236Z,58.34
2022-10-11T03:38:42.574Z,58.23
2022-10-11T03:39:45.876Z,58.05
2022-10-11T03:40:48.263Z,58.13
2022-10-11T03:41:50.415Z,58.22
2022-10-11T03:42:56.601Z,58.12
2022-10-11T03:43:58.802Z,58.08
2022-10-11T03:45:04.854Z,58.08
2022-10-11T03:46:07.713Z,58.18
2022-10-11T03:47:10.580Z,58.00
2022-10-11T03:48:12.883Z,57.96
2022-10-11T03:49:15.065Z,58.22
2022-10-11T03:50:17.270Z,58.13
2022-10-11T03:51:19.476Z,58.10
2022-10-11T03:52:21.700Z,58.18
2022-10-11T03:53:23.883Z,58.18
2022-10-11T03:54:26.430Z,58.24
2022-10-11T03:55:28.675Z,58.26
2022-10-11T03:56:30.900Z,58.18
2022-10-11T03:57:33.389Z,58.17
2022-10-11T03:58:35.708Z,58.09
2022-10-11T03:59:40.153Z,58.08
2022-10-11T04:00:42.333Z,58.02
2022-10-11T04:01:46.946Z,58.08
2022-10-11T04:02:49.589Z,58.25
2022-10-11T04:03:55.697Z,58.28
2022-10-11T04:04:57.881Z,58.25
2022-10-11T04:06:00.421Z,58.25
2022-10-11T04:07:02.626Z,58.34
2022-10-11T04:08:09.720Z,58.53
2022-10-11T04:09:16.473Z,58.42
2022-10-11T04:10:18.813Z,58.35
2022-10-11T04:11:21.075Z,58.50
2022-10-11T04:12:23.356Z,58.66
2022-10-11T04:13:25.593Z,58.49
2022-10-11T04:14:27.963Z,58.60
2022-10-11T04:15:30.211Z,58.81
2022-10-11T04:16:32.549Z,58.79
2022-10-11T04:17:34.803Z,58.66
2022-10-11T04:18:37.243Z,58.63
2022-10-11T04:19:39.481Z,58.81
2022-10-11T04:20:41.737Z,58.70
2022-10-11T04:21:44.133Z,58.79
2022-10-11T04:22:46.384Z,58.74
2022-10-11T04:23:48.637Z,58.86
2022-10-11T04:24:51.076Z,58.92
2022-10-11T04:25:53.310Z,58.73
2022-10-11T04:26:57.913Z,58.84
2022-10-11T04:28:00.163Z,58.79
2022-10-11T04:29:02.387Z,58.76
2022-10-11T04:30:05.183Z,58.58
2022-10-11T04:31:08.108Z,58.54
2022-10-11T04:32:11.585Z,58.75
2022-10-11T04:33:22.536Z,58.58
2022-10-11T04:34:24.880Z,58.61
2022-10-11T04:35:27.191Z,58.56
2022-10-11T04:36:30.280Z,58.50
2022-10-11T04:37:32.649Z,58.70
2022-10-11T04:38:35.134Z,58.46
2022-10-11T04:39:38.283Z,58.70
2022-10-11T04:40:40.523Z,58.71
2022-10-11T04:41:42.729Z,58.70
2022-10-11T04:42:45.024Z,58.52
2022-10-11T04:43:47.471Z,58.52
2022-10-11T04:44:49.664Z,58.69
2022-10-11T04:45:55.443Z,58.54
2022-10-11T04:46:58.007Z,58.47
2022-10-11T04:48:00.231Z,58.70
2022-10-11T04:49:02.497Z,58.52
2022-10-11T04:50:05.136Z,58.58
2022-10-11T04:51:07.350Z,58.72
2022-10-11T04:52:17.174Z,58.70
2022-10-11T04:53:19.497Z,58.54
2022-10-11T04:54:21.780Z,58.60
2022-10-11T04:55:24.097Z,58.67
2022-10-11T04:56:26.352Z,58.64
2022-10-11T04:57:28.548Z,58.79
2022-10-11T04:58:31.960Z,58.73
2022-10-11T04:59:34.169Z,58.75
2022-10-11T05:00:36.396Z,58.77
2022-10-11T05:01:38.855Z,58.84
2022-10-11T05:02:41.049Z,58.74
2022-10-11T05:03:43.354Z,58.88
2022-10-11T05:04:45.623Z,58.63
2022-10-11T05:05:47.913Z,58.72
2022-10-11T05:06:50.169Z,58.69
2022-10-11T05:07:52.352Z,58.79
2022-10-11T05:08:54.630Z,58.64
2022-10-11T05:09:56.881Z,58.74
2022-10-11T05:11:04.449Z,58.77
2022-10-11T05:12:06.840Z,58.96
2022-10-11T05:13:09.014Z,58.78
2022-10-11T05:14:11.419Z,58.80
2022-10-11T05:15:13.672Z,58.74
2022-10-11T05:16:16.895Z,58.97
2022-10-11T05:17:19.727Z,59.14
2022-10-11T05:18:22.371Z,59.04
2022-10-11T05:19:27.679Z,59.13
2022-10-11T05:20:29.939Z,59.14
2022-10-11T05:21:32.295Z,59.04
2022-10-11T05:22:34.535Z,59.33
2022-10-11T05:23:37.299Z,59.18
2022-10-11T05:24:39.509Z,59.31
2022-10-11T05:25:41.993Z,59.23
2022-10-11T05:26:46.868Z,59.38
2022-10-11T05:27:51.322Z,59.43
2022-10-11T05:28:54.142Z,59.54
2022-10-11T05:29:56.468Z,59.69
2022-10-11T05:30:59.333Z,59.60
2022-10-11T05:32:01.512Z,59.73
2022-10-11T05:33:04.141Z,59.63
2022-10-11T05:34:09.402Z,59.66
2022-10-11T05:35:19.200Z,59.67
2022-10-11T05:36:21.663Z,59.86
2022-10-11T05:37:24.494Z,59.71
2022-10-11T05:38:27.338Z,59.95
2022-10-11T05:39:29.605Z,59.96
2022-10-11T05:40:32.031Z,60.10
2022-10-11T05:41:34.311Z,59.92
2022-10-11T05:42:36.863Z,59.93
2022-10-11T05:43:39.557Z,60.20
2022-10-11T05:44:41.839Z,60.17
2022-10-11T05:45:44.884Z,60.13
2022-10-11T05:46:47.331Z,60.24
2022-10-11T05:47:49.547Z,60.47
2022-10-11T05:48:52.589Z,60.51
2022-10-11T05:49:54.768Z,60.52
2022-10-11T05:51:06.195Z,60.46
2022-10-11T05:52:10.540Z,60.54
2022-10-11T05:53:12.822Z,60.46
2022-10-11T05:54:17.296Z,60.62
2022-10-11T05:55:19.518Z,60.64
2022-10-11T05:56:25.211Z,60.92
2022-10-11T05:57:27.393Z,60.97
2022-10-11T05:58:29.845Z,60.90
2022-10-11T05:59:34.574Z,61.05
2022-10-11T06:00:38.144Z,61.09
2022-10-11T06:01:40.427Z,61.14
2022-10-11T06:02:42.731Z,61.37
2022-10-11T06:03:44.936Z,61.27
2022-10-11T06:04:47.191Z,61.64
2022-10-11T06:05:53.220Z,61.60
2022-10-11T06:06:58.459Z,61.75
2022-10-11T06:08:02.799Z,61.88
2022-10-11T06:09:04.980Z,61.90
2022-10-11T06:10:08.078Z,61.97
2022-10-11T06:11:13.317Z,62.01
2022-10-11T06:12:15.516Z,61.90
2022-10-11T06:13:17.730Z,61.93
2022-10-11T06:14:20.192Z,62.13
2022-10-11T06:15:22.379Z,62.11
2022-10-11T06:16:25.566Z,61.96
2022-10-11T06:17:29.327Z,62.06
2022-10-11T06:18:31.921Z,62.04
2022-10-11T06:19:34.162Z,62.20
2022-10-11T06:20:39.383Z,61.93
2022-10-11T06:21:41.680Z,61.92
2022-10-11T06:22:43.931Z,61.97
2022-10-11T06:23:50.569Z,62.03
2022-10-11T06:24:53.584Z,62.12
2022-10-11T06:26:01.059Z,61.93
2022-10-11T06:27:03.492Z,61.99
2022-10-11T06:28:05.681Z,61.93
2022-10-11T06:29:08.799Z,62.20
2022-10-11T06:30:11.312Z,62.16
2022-10-11T06:31:14.206Z,62.18
2022-10-11T06:32:17.217Z,62.31
2022-10-11T06:33:19.720Z,62.55
2022-10-11T06:34:22.024Z,62.58
2022-10-11T06:35:24.237Z,62.59
2022-10-11T06:36:29.985Z,62.84
2022-10-11T06:37:32.269Z,63.04
2022-10-11T06:38:34.669Z,63.02
2022-10-11T06:39:36.899Z,62.94
2022-10-11T06:40:42.221Z,63.04
2022-10-11T06:41:44.497Z,62.84
2022-10-11T06:42:50.016Z,62.60
2022-10-11T06:43:52.593Z,62.68
2022-10-11T06:44:54.843Z,62.38
2022-10-11T06:45:59.519Z,62.35
2022-10-11T06:47:01.795Z,62.31
2022-10-11T06:48:05.909Z,62.19
2022-10-11T06:49:08.597Z,62.13
2022-10-11T06:50:10.795Z,61.87
2022-10-11T06:51:14.298Z,61.57
2022-10-11T06:52:16.508Z,61.56
2022-10-11T06:53:19.597Z,61.30
2022-10-11T06:54:21.938Z,61.06
2022-10-11T06:55:24.137Z,61.04
2022-10-11T06:56:27.926Z,60.61
2022-10-11T06:57:30.196Z,60.14
2022-10-11T06:58:32.579Z,59.85
2022-10-11T06:59:34.945Z,59.92
2022-10-11T07:00:37.308Z,59.53
2022-10-11T07:01:39.582Z,59.33
2022-10-11T07:02:41.866Z,58.97
2022-10-11T07:03:45.512Z,58.63
2022-10-11T07:04:47.774Z,58.28
2022-10-11T07:05:49.976Z,57.83
2022-10-11T07:06:52.315Z,57.45
2022-10-11T07:07:54.496Z,57.25
2022-10-11T07:09:00.472Z,56.75
2022-10-11T07:10:02.717Z,56.44
2022-10-11T07:11:08.711Z,56.08
2022-10-11T07:12:10.957Z,55.50
2022-10-11T07:13:17.114Z,55.70
2022-10-11T07:14:19.566Z,55.17
2022-10-11T07:15:22.243Z,55.08
2022-10-11T07:16:24.938Z,54.66
2022-10-11T07:17:29.786Z,54.46
2022-10-11T07:18:32.348Z,54.02
2022-10-11T07:19:34.581Z,53.81
2022-10-11T07:20:36.820Z,53.33
2022-10-11T07:21:39.570Z,53.04
2022-10-11T07:22:41.758Z,52.62
2022-10-11T07:23:43.989Z,52.34
2022-10-11T07:24:46.185Z,52.26
2022-10-11T07:25:48.516Z,51.74
2022-10-11T07:26:50.980Z,51.20
2022-10-11T07:27:53.212Z,51.19
2022-10-11T07:28:55.654Z,50.51
2022-10-11T07:29:57.996Z,50.14
2022-10-11T07:31:12.924Z,49.99
2022-10-11T07:32:16.561Z,49.91
2022-10-11T07:33:18.960Z,49.56
2022-10-11T07:34:22.928Z,49.55
2022-10-11T07:35:25.202Z,49.28
2022-10-11T07:36:27.695Z,49.15
2022-10-11T07:37:36.140Z,48.68
2022-10-11T07:38:43.415Z,48.58
2022-10-11T07:39:46.305Z,48.22
2022-10-11T07:40:48.711Z,47.95
2022-10-11T07:41:50.901Z,47.73
2022-10-11T07:42:53.219Z,47.66
2022-10-11T07:43:55.714Z,47.04
2022-10-11T07:44:57.889Z,46.92
2022-10-11T07:46:09.583Z,46.79
2022-10-11T07:47:12.218Z,46.00
2022-10-11T07:48:15.591Z,45.97
2022-10-11T07:49:17.931Z,45.93
2022-10-11T07:50:20.168Z,45.59
2022-10-11T07:51:24.333Z,45.30
2022-10-11T07:52:26.661Z,45.04
2022-10-11T07:53:29.868Z,44.81
2022-10-11T07:54:33.673Z,44.70
2022-10-11T07:55:43.319Z,44.49
2022-10-11T07:56:48.143Z,44.65
2022-10-11T07:57:53.533Z,43.76
2022-10-11T07:58:58.253Z,44.01
2022-10-11T08:00:00.546Z,43.87
2022-10-11T08:01:02.889Z,43.53
2022-10-11T08:02:05.130Z,43.29
2022-10-11T08:03:09.938Z,43.09
2022-10-11T08:04:12.354Z,43.24
2022-10-11T08:05:14.619Z,42.90
2022-10-11T08:06:20.674Z,42.46
2022-10-11T08:07:25.907Z,41.86
2022-10-11T08:08:28.644Z,42.29
2022-10-11T08:09:31.717Z,41.96
2022-10-11T08:10:38.539Z,41.47
2022-10-11T08:11:40.729Z,41.94
2022-10-11T08:12:43.058Z,41.63
2022-10-11T08:13:45.269Z,41.07
2022-10-11T08:14:47.549Z,41.05
2022-10-11T08:15:50.678Z,41.26
2022-10-11T08:16:52.870Z,40.66
2022-10-11T08:17:55.134Z,40.93
2022-10-11T08:18:57.506Z,40.93
2022-10-11T08:19:59.752Z,40.68
2022-10-11T08:21:09.590Z,40.56
2022-10-11T08:22:11.865Z,40.61
2022-10-11T08:23:14.426Z,40.45
2022-10-11T08:24:20.775Z,39.97
2022-10-11T08:25:23.100Z,40.20
2022-10-11T08:26:27.926Z,39.67
2022-10-11T08:27:30.176Z,39.71
2022-10-11T08:28:33.341Z,39.74
2022-10-11T08:29:35.753Z,39.73
2022-10-11T08:30:37.960Z,39.52
2022-10-11T08:31:40.392Z,39.43
2022-10-11T08:32:42.679Z,39.47
2022-10-11T08:33:44.944Z,39.27
2022-10-11T08:34:47.185Z,39.46
2022-10-11T08:35:50.608Z,38.46
2022-10-11T08:36:52.923Z,38.83
2022-10-11T08:37:55.172Z,39.03
2022-10-11T08:38:57.456Z,39.16
2022-10-11T08:39:59.703Z,39.15
2022-10-11T08:41:02.554Z,38.57
2022-10-11T08:42:13.212Z,38.52
2022-10-11T08:43:33.145Z,38.49
2022-10-11T08:45:10.581Z,38.38
2022-10-11T08:46:19.403Z,38.15
2022-10-11T08:47:32.251Z,38.18
2022-10-11T08:48:38.684Z,37.50
2022-10-11T08:49:44.816Z,37.62
2022-10-11T08:50:50.993Z,37.11
2022-10-11T08:52:00.299Z,37.40
2022-10-11T08:53:11.109Z,37.16
2022-10-11T08:54:31.837Z,37.59
2022-10-11T08:55:45.129Z,37.43
2022-10-11T08:56:49.957Z,37.40
2022-10-11T08:57:56.816Z,36.94
2022-10-11T08:59:33.031Z,37.56
2022-10-11T09:00:38.239Z,37.06
2022-10-11T09:02:03.375Z,37.65
2022-10-11T09:03:38.849Z,37.49
2022-10-11T09:04:41.305Z,36.99
2022-10-11T09:06:06.797Z,36.80
2022-10-11T09:08:01.486Z,37.63
2022-10-11T09:09:25.135Z,37.04
2022-10-11T09:10:42.758Z,36.69
2022-10-11T09:11:57.313Z,36.74
2022-10-11T09:13:33.791Z,35.81
2022-10-11T09:14:38.927Z,35.44
2022-10-11T09:16:10.116Z,35.58
2022-10-11T09:17:30.898Z,35.49
2022-10-11T09:19:07.794Z,35.35
2022-10-11T09:20:28.059Z,34.82
2022-10-11T09:21:50.528Z,34.51
2022-10-11T09:23:11.782Z,35.13
2022-10-11T09:24:37.004Z,34.91
2022-10-11T09:25:42.055Z,34.70
2022-10-11T09:27:01.538Z,35.26
2022-10-11T09:28:16.482Z,35.16
2022-10-11T09:29:44.553Z,36.06
2022-10-11T09:30:50.630Z,35.67
2022-10-11T09:31:58.312Z,35.47
2022-10-11T09:33:21.646Z,35.79
2022-10-11T09:34:32.575Z,35.58
2022-10-11T09:35:41.054Z,35.82
2022-10-11T09:37:05.011Z,36.54
2022-10-11T09:38:35.498Z,36.89
2022-10-11T09:39:42.442Z,36.21
2022-10-11T09:40:59.162Z,36.37
2022-10-11T09:42:05.735Z,36.23
2022-10-11T09:43:09.333Z,35.73
2022-10-11T09:44:25.528Z,36.21
2022-10-11T09:45:30.412Z,36.05
2022-10-11T09:46:41.549Z,35.56
2022-10-11T09:47:43.745Z,35.10
2022-10-11T09:48:47.388Z,35.13
2022-10-11T09:50:21.088Z,34.71
2022-10-11T09:51:26.165Z,34.73
2022-10-11T09:52:28.424Z,34.35
2022-10-11T09:53:51.661Z,34.83
2022-10-11T09:55:00.565Z,34.86
2022-10-11T09:56:07.870Z,35.06
2022-10-11T09:57:41.227Z,35.23
2022-10-11T09:58:43.663Z,35.37
2022-10-11T10:00:01.693Z,35.00
2022-10-11T10:01:24.903Z,34.07
2022-10-11T10:02:29.297Z,34.00
2022-10-11T10:03:34.528Z,33.95
2022-10-11T10:04:55.632Z,34.45
2022-10-11T10:06:17.562Z,34.00
2022-10-11T10:07:21.771Z,33.52
2022-10-11T10:08:24.975Z,33.03
2022-10-11T10:09:31.095Z,33.12
2022-10-11T10:10:46.732Z,33.68
2022-10-11T10:11:48.969Z,33.53
2022-10-11T10:12:56.971Z,34.23
2022-10-11T10:13:59.263Z,33.97
2022-10-11T10:15:14.644Z,34.03
2022-10-11T10:16:34.418Z,34.36
2022-10-11T10:17:36.987Z,34.39
2022-10-11T10:18:44.212Z,33.62
2022-10-11T10:19:55.841Z,33.80
2022-10-11T10:20:59.914Z,34.30
2022-10-11T10:22:02.275Z,33.89
2022-10-11T10:23:27.117Z,33.75
2022-10-11T10:24:42.634Z,34.31
2022-10-11T10:25:51.023Z,33.53
2022-10-11T10:27:14.359Z,32.96
2022-10-11T10:28:26.434Z,33.26
2022-10-11T10:29:28.694Z,32.27
2022-10-11T10:30:35.383Z,32.00
2022-10-11T10:32:02.019Z,31.70
2022-10-11T10:33:11.043Z,31.79
2022-10-11T10:34:16.875Z,31.97
2022-10-11T10:35:48.351Z,33.08
2022-10-11T10:36:58.712Z,32.70
2022-10-11T10:38:26.367Z,33.30
2022-10-11T10:39:47.264Z,32.40
2022-10-11T10:40:49.475Z,31.89
2022-10-11T10:41:52.047Z,31.97
2022-10-11T10:42:54.645Z,32.87
2022-10-11T10:44:02.335Z,33.30
2022-10-11T10:45:09.796Z,33.71
2022-10-11T10:46:27.725Z,33.96
2022-10-11T10:47:42.230Z,33.70
2022-10-11T10:50:22.149Z,33.81
2022-10-11T10:51:44.943Z,34.05
2022-10-11T10:53:12.766Z,34.19
2022-10-11T10:54:29.611Z,33.78
2022-10-11T10:55:37.445Z,33.50
2022-10-11T10:56:52.626Z,33.87
2022-10-11T10:58:28.992Z,34.06
2022-10-11T10:59:55.840Z,33.78
2022-10-11T11:01:31.687Z,33.90
2022-10-11T11:02:44.433Z,34.20
2022-10-11T11:03:49.727Z,33.37
2022-10-11T11:05:06.151Z,33.74
2022-10-11T11:06:16.015Z,33.23
2022-10-11T11:07:30.342Z,33.74
2022-10-11T11:09:01.404Z,34.13
2022-10-11T11:10:25.871Z,34.39
2022-10-11T11:11:46.545Z,33.99
2022-10-11T11:13:24.843Z,33.93
2022-10-11T11:14:33.194Z,33.97
2022-10-11T11:15:45.277Z,33.23
2022-10-11T11:17:10.781Z,33.68
2022-10-11T11:18:37.857Z,32.90
2022-10-11T11:20:13.711Z,32.68
2022-10-11T11:21:15.917Z,32.49
2022-10-11T11:22:59.504Z,33.78
2022-10-11T11:24:16.318Z,33.98
2022-10-11T11:25:33.077Z,34.50
2022-10-11T11:26:47.117Z,34.43
2022-10-11T11:28:11.024Z,34.60
2022-10-11T11:29:23.151Z,34.86
2022-10-11T11:30:50.348Z,34.71
2022-10-11T11:32:26.305Z,35.11
2022-10-11T11:33:47.818Z,34.98
2022-10-11T11:35:01.359Z,35.02
2022-10-11T11:36:10.122Z,35.03
2022-10-11T11:37:35.941Z,35.30
2022-10-11T11:38:44.295Z,35.11
2022-10-11T11:39:50.307Z,34.93
2022-10-11T11:41:00.109Z,34.37
2022-10-11T11:42:12.364Z,34.48
2022-10-11T11:43:34.180Z,35.66
2022-10-11T11:44:49.447Z,34.47
2022-10-11T11:46:04.611Z,33.73
2022-10-11T11:47:29.361Z,32.94
2022-10-11T11:48:31.704Z,32.98
2022-10-11T11:49:41.480Z,32.97
2022-10-11T11:50:49.363Z,33.30
2022-10-11T11:51:51.971Z,33.20
2022-10-11T11:53:05.199Z,33.54
2022-10-11T11:54:08.531Z,33.56
2022-10-11T11:55:17.990Z,34.14
2022-10-11T11:56:45.622Z,34.40
2022-10-11T11:58:08.115Z,34.78
2022-10-11T11:59:44.768Z,34.62
2022-10-11T12:01:06.184Z,34.89
2022-10-11T12:02:50.461Z,34.43
2022-10-11T12:03:56.055Z,34.37
2022-10-11T12:04:58.780Z,34.21
2022-10-11T12:06:22.550Z,34.72
2022-10-11T12:07:26.664Z,34.82
2022-10-11T12:08:34.075Z,34.75
2022-10-11T12:09:38.796Z,34.88
2022-10-11T12:11:00.925Z,35.08
2022-10-11T12:12:09.001Z,35.43
2022-10-11T12:13:20.050Z,35.15
2022-10-11T12:14:33.985Z,34.71
2022-10-11T12:15:37.147Z,34.21
2022-10-11T12:17:08.254Z,33.87
2022-10-11T12:18:19.194Z,33.66
2022-10-11T12:19:21.621Z,34.01
2022-10-11T12:20:28.766Z,34.10
2022-10-11T12:21:36.875Z,33.59
2022-10-11T12:22:55.148Z,33.83
2022-10-11T12:24:17.650Z,34.04
2022-10-11T12:25:22.859Z,33.97
2022-10-11T12:26:28.200Z,34.34
2022-10-11T12:27:39.582Z,34.47
2022-10-11T12:28:42.240Z,34.66
2022-10-11T12:29:50.766Z,34.43
2022-10-11T12:30:53.646Z,34.42
2022-10-11T12:31:58.595Z,35.16
2022-10-11T12:33:15.061Z,35.18
2022-10-11T12:36:41.608Z,35.20
2022-10-11T12:37:43.844Z,35.34
2022-10-11T12:38:46.340Z,35.23
2022-10-11T12:39:53.887Z,34.83
2022-10-11T12:41:18.336Z,34.62
2022-10-11T12:42:31.174Z,34.73
2022-10-11T12:43:55.256Z,35.23
2022-10-11T12:45:19.646Z,35.92
2022-10-11T12:46:28.084Z,35.89
2022-10-11T12:47:43.076Z,35.59
2022-10-11T12:48:57.891Z,35.86
2022-10-11T12:50:47.536Z,36.05
2022-10-11T12:51:55.602Z,35.52
2022-10-11T12:53:10.925Z,35.60
2022-10-11T12:54:50.596Z,35.61
2022-10-11T12:56:26.990Z,35.79
2022-10-11T12:58:04.402Z,36.19
2022-10-11T12:59:14.728Z,36.09
2022-10-11T13:00:29.170Z,36.37
2022-10-11T13:01:48.782Z,36.63
2022-10-11T13:02:51.043Z,36.46
2022-10-11T13:04:04.880Z,36.66
2022-10-11T13:05:18.270Z,36.25
2022-10-11T13:06:27.082Z,36.28
2022-10-11T13:07:30.058Z,36.56
2022-10-11T13:08:40.188Z,36.71
2022-10-11T13:09:48.776Z,36.72
2022-10-11T13:10:52.898Z,36.80
2022-10-11T13:12:26.346Z,36.69
2022-10-11T13:13:42.413Z,36.39
2022-10-11T13:14:48.390Z,36.36
2022-10-11T13:15:54.397Z,36.64
2022-10-11T13:17:16.871Z,36.70
2022-10-11T13:18:25.256Z,36.83
2022-10-11T13:19:31.945Z,37.06
2022-10-11T13:20:37.634Z,37.05
2022-10-11T13:21:43.887Z,37.02
2022-10-11T13:22:49.823Z,36.95
2022-10-11T13:23:57.789Z,36.98
2022-10-11T13:24:59.993Z,37.03
2022-10-11T13:26:04.698Z,36.90
2022-10-11T13:27:08.096Z,37.01
2022-10-11T13:28:10.423Z,36.88
2022-10-11T13:29:41.171Z,37.06
2022-10-11T13:30:46.996Z,37.02
2022-10-11T13:31:49.689Z,37.38
2022-10-11T13:32:52.873Z,37.16
2022-10-11T13:33:59.233Z,37.00
2022-10-11T13:35:13.024Z,37.09
2022-10-11T13:36:17.963Z,36.78
2022-10-11T13:37:24.579Z,36.83
2022-10-11T13:38:29.736Z,36.57
2022-10-11T13:39:36.901Z,36.67
2022-10-11T13:40:39.300Z,36.55
2022-10-11T13:41:42.451Z,36.61
2022-10-11T13:42:45.262Z,36.57
2022-10-11T13:43:48.004Z,36.60
2022-10-11T13:44:50.422Z,36.79
2022-10-11T13:45:56.814Z,36.96
2022-10-11T13:47:02.282Z,36.88
2022-10-11T13:48:13.110Z,37.10
2022-10-11T13:49:42.888Z,37.24
2022-10-11T13:50:52.312Z,36.54
2022-10-11T13:52:18.717Z,36.65
2022-10-11T13:53:25.535Z,36.56
2022-10-11T13:54:55.381Z,36.77
2022-10-11T13:56:00.225Z,37.10
2022-10-11T13:57:05.840Z,36.67
2022-10-11T13:58:18.865Z,36.77
2022-10-11T13:59:24.683Z,36.73
2022-10-11T14:00:33.798Z,36.88
2022-10-11T14:01:41.196Z,36.86
2022-10-11T14:03:22.614Z,37.38
2022-10-11T14:04:29.481Z,37.16
2022-10-11T14:05:47.194Z,36.85
2022-10-11T14:06:58.217Z,37.39
2022-10-11T14:08:04.049Z,37.47
2022-10-11T14:09:09.423Z,37.07
2022-10-11T14:10:21.237Z,37.21
2022-10-11T14:11:35.905Z,37.07
2022-10-11T14:12:44.459Z,37.21
2022-10-11T14:13:50.105Z,36.56
2022-10-11T14:14:52.600Z,36.76
2022-10-11T14:16:33.395Z,36.66
2022-10-11T14:17:43.149Z,36.31
2022-10-11T14:18:47.969Z,36.23
2022-10-11T14:20:13.141Z,36.24
2022-10-11T14:21:33.049Z,36.31
2022-10-11T14:22:37.832Z,36.27
2022-10-11T14:23:40.117Z,36.06
2022-10-11T14:24:43.635Z,36.54
2022-10-11T14:25:46.434Z,36.43
2022-10-11T14:26:51.515Z,36.30
2022-10-11T14:27:54.804Z,36.59
2022-10-11T14:29:00.835Z,36.42
2022-10-11T14:30:31.214Z,36.43
2022-10-11T14:31:36.807Z,36.50
2022-10-11T14:32:42.487Z,36.39
2022-10-11T14:33:44.698Z,36.90
2022-10-11T14:34:49.395Z,36.74
2022-10-11T14:35:53.870Z,36.95
2022-10-11T14:36:56.075Z,36.85
2022-10-11T14:37:59.042Z,36.86
2022-10-11T14:39:03.837Z,36.76
2022-10-11T14:40:13.565Z,37.04
2022-10-11T14:41:16.029Z,36.97
2022-10-11T14:42:19.169Z,37.13
2022-10-11T14:43:21.432Z,36.95
2022-10-11T14:44:25.145Z,37.01
2022-10-11T14:45:27.426Z,36.96
2022-10-11T14:46:30.240Z,36.92